createdAt,value
2022-07-25T00:00:12.708Z,20.71
2022-07-25T00:03:20.104Z,20.71
2022-07-25T00:06:28.439Z,20.72
2022-07-25T00:09:36.314Z,20.73
2022-07-25T00:12:42.585Z,20.71
2022-07-25T00:15:49.884Z,20.71
2022-07-25T00:18:56.133Z,20.66
2022-07-25T00:22:02.087Z,20.64
2022-07-25T00:25:08.869Z,20.63
2022-07-25T00:28:15.030Z,20.64
2022-07-25T00:31:23.172Z,20.64
2022-07-25T00:34:28.784Z,20.63
2022-07-25T00:37:34.866Z,20.63
2022-07-25T00:40:41.120Z,20.64
2022-07-25T00:43:48.310Z,20.65
2022-07-25T00:46:54.655Z,20.65
2022-07-25T00:50:01.665Z,20.65
2022-07-25T00:53:08.248Z,20.64
2022-07-25T00:56:15.852Z,20.62
2022-07-25T00:59:24.153Z,20.59
2022-07-25T01:02:32.201Z,20.57
2022-07-25T01:05:37.801Z,20.55
2022-07-25T01:08:44.584Z,20.53
2022-07-25T01:11:51.155Z,20.52
2022-07-25T01:14:57.539Z,20.51
2022-07-25T01:18:05.423Z,20.51
2022-07-25T01:21:13.330Z,20.50
2022-07-25T01:24:21.225Z,20.48
2022-07-25T01:27:27.307Z,20.48
2022-07-25T01:30:33.892Z,20.47
2022-07-25T01:33:40.145Z,20.46
2022-07-25T01:36:46.828Z,20.45
2022-07-25T01:39:52.783Z,20.46
2022-07-25T01:42:58.838Z,20.44
2022-07-25T01:46:04.748Z,20.42
2022-07-25T01:49:11.788Z,20.38
2022-07-25T01:52:17.749Z,20.35
2022-07-25T01:55:24.866Z,20.32
2022-07-25T01:58:31.860Z,20.30
2022-07-25T02:01:37.919Z,20.26
2022-07-25T02:04:45.085Z,20.23
2022-07-25T02:07:51.852Z,20.19
2022-07-25T02:10:58.091Z,20.16
2022-07-25T02:14:04.230Z,20.15
2022-07-25T02:17:10.684Z,20.12
2022-07-25T02:20:21.013Z,20.08
2022-07-25T02:23:26.990Z,20.04
2022-07-25T02:26:33.310Z,20.02
2022-07-25T02:29:40.608Z,20.01
2022-07-25T02:32:46.261Z,19.99
2022-07-25T02:35:52.428Z,19.98
2022-07-25T02:38:59.097Z,19.96
2022-07-25T02:42:06.139Z,19.92
2022-07-25T02:45:14.011Z,19.87
2022-07-25T02:48:22.110Z,19.84
2022-07-25T02:51:29.221Z,19.83
2022-07-25T02:54:36.982Z,19.82
2022-07-25T02:57:42.444Z,19.76
2022-07-25T03:00:48.603Z,19.72
2022-07-25T03:03:55.628Z,19.68
2022-07-25T03:07:02.472Z,19.66
2022-07-25T03:10:11.492Z,19.62
2022-07-25T03:13:18.526Z,19.60
2022-07-25T03:16:26.009Z,19.58
2022-07-25T03:19:32.034Z,19.54
2022-07-25T03:22:38.318Z,19.50
2022-07-25T03:25:48.014Z,19.47
2022-07-25T03:29:03.353Z,19.47
2022-07-25T03:32:17.962Z,19.46
2022-07-25T03:35:24.064Z,19.46
2022-07-25T03:38:31.975Z,19.45
2022-07-25T03:41:39.670Z,19.44
2022-07-25T03:44:46.372Z,19.42
2022-07-25T03:47:57.531Z,19.38
2022-07-25T03:51:07.549Z,19.34
2022-07-25T03:54:13.716Z,19.33
2022-07-25T03:57:21.252Z,19.32
2022-07-25T04:00:29.136Z,19.30
2022-07-25T04:03:36.939Z,19.28
2022-07-25T04:06:44.208Z,19.30
2022-07-25T04:09:50.996Z,19.31
2022-07-25T04:12:57.463Z,19.31
2022-07-25T04:16:03.132Z,19.31
2022-07-25T04:19:10.939Z,19.35
2022-07-25T04:22:16.270Z,19.42
2022-07-25T04:25:24.661Z,19.48
2022-07-25T04:28:32.596Z,19.53
2022-07-25T04:31:43.737Z,19.56
2022-07-25T04:34:52.086Z,19.60
2022-07-25T04:38:00.445Z,19.66
2022-07-25T04:41:09.857Z,19.69
2022-07-25T04:44:15.810Z,19.75
2022-07-25T04:47:21.799Z,19.79
2022-07-25T04:50:28.806Z,19.78
2022-07-25T04:53:36.454Z,19.76
2022-07-25T04:56:45.082Z,19.74
2022-07-25T04:59:52.180Z,19.76
2022-07-25T05:03:09.043Z,19.80
2022-07-25T05:06:16.294Z,19.80
2022-07-25T05:09:24.935Z,19.80
2022-07-25T05:12:31.368Z,19.81
2022-07-25T05:15:36.627Z,19.81
2022-07-25T05:18:43.144Z,19.81
2022-07-25T05:21:50.087Z,19.82
2022-07-25T05:24:56.217Z,19.84
2022-07-25T05:28:06.480Z,19.86
2022-07-25T05:31:14.786Z,19.90
2022-07-25T05:34:25.389Z,19.93
2022-07-25T05:37:31.126Z,19.96
2022-07-25T05:40:37.293Z,19.99
2022-07-25T05:43:42.635Z,20.01
2022-07-25T05:46:50.337Z,20.06
2022-07-25T05:50:01.470Z,20.09
2022-07-25T05:53:07.141Z,20.13
2022-07-25T05:56:15.291Z,20.19
2022-07-25T05:59:22.886Z,20.25
2022-07-25T06:02:30.623Z,20.33
2022-07-25T06:05:38.031Z,20.41
2022-07-25T06:08:44.034Z,20.51
2022-07-25T06:12:00.577Z,20.65
2022-07-25T06:15:27.456Z,20.88
2022-07-25T06:18:33.999Z,21.10
2022-07-25T06:21:39.875Z,21.29
2022-07-25T06:24:44.972Z,21.37
2022-07-25T06:27:49.469Z,21.34
2022-07-25T06:30:59.622Z,21.31
2022-07-25T06:34:05.724Z,21.30
2022-07-25T06:37:12.751Z,21.27
2022-07-25T06:40:19.747Z,21.24
2022-07-25T06:43:28.850Z,21.21
2022-07-25T06:46:37.610Z,21.19
2022-07-25T06:49:48.887Z,21.20
2022-07-25T06:52:57.107Z,21.21
2022-07-25T06:56:07.494Z,21.23
2022-07-25T06:59:14.724Z,21.23
2022-07-25T07:02:20.112Z,21.22
2022-07-25T07:05:26.357Z,21.23
2022-07-25T07:08:37.134Z,21.22
2022-07-25T07:11:46.566Z,21.21
2022-07-25T07:14:52.910Z,21.22
2022-07-25T07:17:59.369Z,21.24
2022-07-25T07:21:06.393Z,21.32
2022-07-25T07:24:24.421Z,21.36
2022-07-25T07:27:23.279Z,21.35
2022-07-25T07:30:52.063Z,21.32
2022-07-25T07:33:42.370Z,21.31
2022-07-25T07:36:49.287Z,21.30
2022-07-25T07:39:57.685Z,21.26
2022-07-25T07:43:13.451Z,21.23
2022-07-25T07:46:20.856Z,21.23
2022-07-25T07:49:27.609Z,21.29
2022-07-25T07:52:34.428Z,21.31
2022-07-25T07:55:52.686Z,21.37
2022-07-25T07:58:58.779Z,21.49
2022-07-25T08:02:04.936Z,21.64
2022-07-25T08:05:15.320Z,21.83
2022-07-25T08:08:23.128Z,22.03
2022-07-25T08:11:30.783Z,22.29
2022-07-25T08:14:36.283Z,22.58
2022-07-25T08:17:44.641Z,22.83
2022-07-25T08:20:50.461Z,23.09
2022-07-25T08:23:57.106Z,23.29
2022-07-25T08:27:02.976Z,23.39
2022-07-25T08:30:10.236Z,23.39
2022-07-25T08:33:20.079Z,23.45
2022-07-25T08:36:26.288Z,23.52
2022-07-25T08:39:34.420Z,23.59
2022-07-25T08:42:39.815Z,23.71
2022-07-25T08:45:46.554Z,23.83
2022-07-25T08:48:53.053Z,24.04
2022-07-25T08:51:59.411Z,24.15
2022-07-25T08:55:08.354Z,24.26
2022-07-25T08:58:15.367Z,24.27
2022-07-25T09:01:20.937Z,24.19
2022-07-25T09:04:27.357Z,24.13
2022-07-25T09:07:36.303Z,24.06
2022-07-25T09:10:44.107Z,24.10
2022-07-25T09:13:50.636Z,24.17
2022-07-25T09:16:57.636Z,24.24
2022-07-25T09:20:15.339Z,24.29
2022-07-25T09:23:20.037Z,24.37
2022-07-25T09:26:30.265Z,24.48
2022-07-25T09:29:41.153Z,24.53
2022-07-25T09:32:45.609Z,24.69
2022-07-25T09:36:18.335Z,24.92
2022-07-25T09:39:24.329Z,25.08
2022-07-25T09:42:40.732Z,25.24
2022-07-25T09:45:46.870Z,25.30
2022-07-25T09:48:55.931Z,25.24
2022-07-25T09:52:04.993Z,25.11
2022-07-25T09:55:19.788Z,24.95
2022-07-25T09:58:25.364Z,24.68
2022-07-25T10:01:34.845Z,24.43
2022-07-25T10:04:56.147Z,24.35
2022-07-25T10:08:07.314Z,24.33
2022-07-25T10:11:16.670Z,24.32
2022-07-25T10:14:27.574Z,24.50
2022-07-25T10:17:39.100Z,24.78
2022-07-25T10:20:46.519Z,25.08
2022-07-25T10:23:53.153Z,25.25
2022-07-25T10:27:08.842Z,25.10
2022-07-25T10:30:17.219Z,25.05
2022-07-25T10:33:33.357Z,25.03
2022-07-25T10:36:45.809Z,25.18
2022-07-25T10:39:54.013Z,25.50
2022-07-25T10:43:01.045Z,25.77
2022-07-25T10:46:12.923Z,25.89
2022-07-25T10:49:26.301Z,25.84
2022-07-25T10:52:35.712Z,25.73
2022-07-25T10:55:43.060Z,25.53
2022-07-25T10:59:15.992Z,25.47
2022-07-25T11:02:26.602Z,25.46
2022-07-25T11:05:37.763Z,25.50
2022-07-25T11:08:48.511Z,25.51
2022-07-25T11:11:59.031Z,25.62
2022-07-25T11:15:22.600Z,25.71
2022-07-25T11:18:33.052Z,25.78
2022-07-25T11:21:40.643Z,25.78
2022-07-25T11:24:55.916Z,25.69
2022-07-25T11:28:12.903Z,25.53
2022-07-25T11:31:21.641Z,25.45
2022-07-25T11:34:28.057Z,25.41
2022-07-25T11:37:33.559Z,25.47
2022-07-25T11:40:42.812Z,25.46
2022-07-25T11:43:49.196Z,25.36
2022-07-25T11:47:01.944Z,25.34
2022-07-25T11:50:10.069Z,25.30
2022-07-25T11:53:24.276Z,25.34
2022-07-25T11:56:43.019Z,25.42
2022-07-25T11:59:49.000Z,25.36
2022-07-25T12:02:59.764Z,25.14
2022-07-25T12:06:07.509Z,24.78
2022-07-25T12:09:23.884Z,24.47
2022-07-25T12:12:30.451Z,24.29
2022-07-25T12:15:43.541Z,24.12
2022-07-25T12:18:52.583Z,24.07
2022-07-25T12:22:20.845Z,24.10
2022-07-25T12:25:56.469Z,24.20
2022-07-25T12:29:05.811Z,24.44
2022-07-25T12:32:21.320Z,24.60
2022-07-25T12:35:29.825Z,24.76
2022-07-25T12:38:38.083Z,24.91
2022-07-25T12:41:48.725Z,24.84
2022-07-25T12:44:59.474Z,24.67
2022-07-25T12:48:09.970Z,24.62
2022-07-25T12:51:23.141Z,24.59
2022-07-25T12:54:33.976Z,24.57
2022-07-25T12:57:42.441Z,24.70
2022-07-25T13:00:48.538Z,24.88
2022-07-25T13:03:56.308Z,25.09
2022-07-25T13:07:03.828Z,25.29
2022-07-25T13:10:03.007Z,25.27
2022-07-25T13:12:58.714Z,25.06
2022-07-25T13:16:11.113Z,24.91
2022-07-25T13:19:23.126Z,24.95
2022-07-25T13:22:31.544Z,25.13
2022-07-25T13:25:40.873Z,25.10
2022-07-25T13:28:48.357Z,25.07
2022-07-25T13:35:20.142Z,24.97
2022-07-25T13:38:27.445Z,24.98
2022-07-25T13:41:36.556Z,25.05
2022-07-25T13:44:54.365Z,25.00
2022-07-25T13:48:26.814Z,24.77
2022-07-25T13:51:12.978Z,24.46
2022-07-25T13:54:19.257Z,24.25
2022-07-25T13:57:27.186Z,24.28
2022-07-25T14:00:36.259Z,24.54
2022-07-25T14:03:47.320Z,24.63
2022-07-25T14:06:56.453Z,24.54
2022-07-25T14:10:07.082Z,24.51
2022-07-25T14:13:13.716Z,24.57
2022-07-25T14:16:24.413Z,24.67
2022-07-25T14:19:32.393Z,24.76
2022-07-25T14:22:40.697Z,24.84
2022-07-25T14:25:51.687Z,24.80
2022-07-25T14:28:59.903Z,24.82
2022-07-25T14:32:08.822Z,24.97
2022-07-25T14:35:18.242Z,25.07
2022-07-25T14:38:29.729Z,25.13
2022-07-25T14:41:41.827Z,25.19
2022-07-25T14:44:47.876Z,25.16
2022-07-25T14:48:01.403Z,25.18
2022-07-25T14:51:08.079Z,25.20
2022-07-25T14:54:18.469Z,25.35
2022-07-25T14:57:26.462Z,25.41
2022-07-25T15:00:33.610Z,25.42
2022-07-25T15:03:42.001Z,25.41
2022-07-25T15:06:50.977Z,25.29
2022-07-25T15:10:01.844Z,25.08
2022-07-25T15:16:21.849Z,24.96
2022-07-25T15:19:35.714Z,25.08
2022-07-25T15:22:46.634Z,25.39
2022-07-25T15:26:02.708Z,25.58
2022-07-25T15:29:04.587Z,25.62
2022-07-25T15:32:13.149Z,25.48
2022-07-25T15:35:23.483Z,25.48
2022-07-25T15:38:31.381Z,25.44
2022-07-25T15:41:41.144Z,25.46
2022-07-25T15:44:46.938Z,25.48
2022-07-25T15:47:55.840Z,25.48
2022-07-25T15:51:07.555Z,25.50
2022-07-25T15:54:17.397Z,25.56
2022-07-25T15:57:26.546Z,25.46
2022-07-25T16:03:51.937Z,25.34
2022-07-25T16:07:00.715Z,25.25
2022-07-25T16:10:10.698Z,25.22
2022-07-25T16:13:19.474Z,25.14
2022-07-25T16:16:25.399Z,25.04
2022-07-25T16:19:37.198Z,24.96
2022-07-25T16:22:46.627Z,25.03
2022-07-25T16:25:57.055Z,25.12
2022-07-25T16:29:05.929Z,24.98
2022-07-25T16:32:13.714Z,24.85
2022-07-25T16:35:24.495Z,24.75
2022-07-25T16:38:37.559Z,24.65
2022-07-25T16:41:49.039Z,24.53
2022-07-25T16:44:55.683Z,24.37
2022-07-25T16:48:02.350Z,24.27
2022-07-25T16:51:12.188Z,24.18
2022-07-25T16:54:17.869Z,24.08
2022-07-25T16:57:25.429Z,24.01
2022-07-25T17:00:33.346Z,23.90
2022-07-25T17:03:41.787Z,23.81
2022-07-25T17:06:48.301Z,23.69
2022-07-25T17:09:57.461Z,23.68
2022-07-25T17:13:06.943Z,23.59
2022-07-25T17:16:15.576Z,23.48
2022-07-25T17:19:23.529Z,23.36
2022-07-25T17:22:32.671Z,23.21
2022-07-25T17:25:39.656Z,23.08
2022-07-25T17:28:49.761Z,22.96
2022-07-25T17:31:56.611Z,22.86
2022-07-25T17:35:04.402Z,22.75
2022-07-25T17:38:12.125Z,22.65
2022-07-25T17:41:20.792Z,22.54
2022-07-25T17:44:28.986Z,22.44
2022-07-25T17:47:34.120Z,22.34
2022-07-25T17:50:47.849Z,22.23
2022-07-25T17:53:53.572Z,22.13
2022-07-25T17:57:02.952Z,22.04
2022-07-25T18:00:12.316Z,21.94
2022-07-25T18:03:20.473Z,21.86
2022-07-25T18:06:29.859Z,21.79
2022-07-25T18:09:36.183Z,21.72
2022-07-25T18:12:44.052Z,21.63
2022-07-25T18:15:52.133Z,21.56
2022-07-25T18:19:00.930Z,21.50
2022-07-25T18:22:08.430Z,21.42
2022-07-25T18:25:15.467Z,21.35
2022-07-25T18:28:21.935Z,21.27
2022-07-25T18:31:29.658Z,21.21
2022-07-25T18:34:39.509Z,21.15
2022-07-25T18:37:44.730Z,21.09
2022-07-25T18:41:01.762Z,21.05
2022-07-25T18:43:57.890Z,20.99
2022-07-25T18:47:06.304Z,20.94
2022-07-25T18:50:14.599Z,20.86
2022-07-25T18:53:21.499Z,20.75
2022-07-25T18:56:28.651Z,20.67
2022-07-25T18:59:34.547Z,20.59
2022-07-25T19:02:40.182Z,20.53
2022-07-25T19:05:47.331Z,20.45
2022-07-25T19:08:56.633Z,20.41
2022-07-25T19:12:03.964Z,20.36
2022-07-25T19:15:13.748Z,20.32
2022-07-25T19:18:20.246Z,20.27
2022-07-25T19:21:27.461Z,20.22
2022-07-25T19:24:33.874Z,20.16
2022-07-25T19:27:40.850Z,20.10
2022-07-25T19:30:47.621Z,20.02
2022-07-25T19:33:55.041Z,19.96
2022-07-25T19:37:04.378Z,19.90
2022-07-25T19:40:11.149Z,19.83
2022-07-25T19:43:17.440Z,19.77
2022-07-25T19:46:24.141Z,19.71
2022-07-25T19:49:31.794Z,19.66
2022-07-25T19:52:38.776Z,19.62
2022-07-25T19:55:45.272Z,19.59
2022-07-25T19:58:53.363Z,19.52
2022-07-25T20:02:00.143Z,19.51
2022-07-25T20:05:06.958Z,19.44
2022-07-25T20:08:13.834Z,19.38
2022-07-25T20:11:22.872Z,19.33
2022-07-25T20:14:29.907Z,19.28
2022-07-25T20:17:35.660Z,19.26
2022-07-25T20:20:43.054Z,19.23
2022-07-25T20:23:50.139Z,19.16
2022-07-25T20:26:56.411Z,19.11
2022-07-25T20:30:02.652Z,19.05
2022-07-25T20:33:10.005Z,19.04
2022-07-25T20:36:17.246Z,19.04
2022-07-25T20:39:24.022Z,19.04
2022-07-25T20:42:30.425Z,19.05
2022-07-25T20:45:38.331Z,19.05
2022-07-25T20:48:45.739Z,19.06
2022-07-25T20:51:54.603Z,19.07
2022-07-25T20:55:06.872Z,19.07
2022-07-25T20:58:10.745Z,19.06
2022-07-25T21:01:18.818Z,19.04
2022-07-25T21:04:25.956Z,19.03
2022-07-25T21:07:32.489Z,19.00
2022-07-25T21:10:37.879Z,19.00
2022-07-25T21:13:44.419Z,18.98
2022-07-25T21:16:51.173Z,18.96
2022-07-25T21:19:58.489Z,18.94
2022-07-25T21:23:05.789Z,18.91
2022-07-25T21:26:11.954Z,18.89
2022-07-25T21:29:18.114Z,18.86
2022-07-25T21:32:24.695Z,18.81
2022-07-25T21:35:31.043Z,18.77
2022-07-25T21:38:38.241Z,18.73
2022-07-25T21:41:44.811Z,18.73
2022-07-25T21:44:56.806Z,18.68
2022-07-25T21:48:04.103Z,18.67
2022-07-25T21:51:18.723Z,18.66
2022-07-25T21:54:18.068Z,18.66
2022-07-25T21:57:23.923Z,18.64
2022-07-25T22:00:33.405Z,18.63
2022-07-25T22:03:39.557Z,18.62
2022-07-25T22:06:46.005Z,18.60
2022-07-25T22:09:51.887Z,18.57
2022-07-25T22:12:59.690Z,18.55
2022-07-25T22:16:06.575Z,18.52
2022-07-25T22:19:13.947Z,18.49
2022-07-25T22:22:22.662Z,18.47
2022-07-25T22:25:30.155Z,18.46
2022-07-25T22:28:37.517Z,18.41
2022-07-25T22:31:45.701Z,18.37
2022-07-25T22:34:53.247Z,18.36
2022-07-25T22:37:59.437Z,18.34
2022-07-25T22:41:05.579Z,18.31
2022-07-25T22:44:13.251Z,18.27
2022-07-25T22:47:21.085Z,18.26
2022-07-25T22:50:28.278Z,18.25
2022-07-25T22:53:36.285Z,18.22
2022-07-25T22:56:42.449Z,18.19
2022-07-25T22:59:48.089Z,18.17
2022-07-25T23:02:55.220Z,18.16
2022-07-25T23:06:02.617Z,18.15
2022-07-25T23:09:09.139Z,18.15
2022-07-25T23:12:17.170Z,18.15
2022-07-25T23:15:24.639Z,18.13
2022-07-25T23:18:31.953Z,18.13
2022-07-25T23:21:39.044Z,18.14
2022-07-25T23:24:45.294Z,18.15
2022-07-25T23:27:55.152Z,18.16
2022-07-25T23:31:01.514Z,18.18
2022-07-25T23:34:09.515Z,18.22
2022-07-25T23:40:39.840Z,18.27
2022-07-25T23:43:57.491Z,18.30
2022-07-25T23:46:54.380Z,18.31
2022-07-25T23:49:59.697Z,18.30
2022-07-25T23:53:06.444Z,18.31
2022-07-25T23:56:16.152Z,18.31
2022-07-25T23:59:22.883Z,18.31
